createdAt,value
2023-01-17T00:02:12.690Z,26.70
2023-01-17T00:04:58.280Z,25.40
2023-01-17T00:07:43.657Z,25.00
2023-01-17T00:10:13.712Z,26.30
2023-01-17T00:13:07.481Z,25.50
2023-01-17T00:15:39.936Z,29.40
2023-01-17T00:18:06.863Z,28.20
2023-01-17T00:20:52.668Z,26.80
2023-01-17T00:23:40.156Z,28.10
2023-01-17T00:26:11.494Z,21.60
2023-01-17T00:28:40.788Z,22.40
2023-01-17T00:31:09.907Z,24.20
2023-01-17T00:33:36.779Z,24.00
2023-01-17T00:36:03.977Z,26.30
2023-01-17T00:38:32.375Z,22.50
2023-01-17T00:41:03.763Z,23.20
2023-01-17T00:43:49.474Z,22.40
2023-01-17T00:46:35.411Z,23.80
2023-01-17T00:49:21.627Z,23.30
2023-01-17T00:52:07.345Z,26.60
2023-01-17T00:54:52.984Z,21.80
2023-01-17T00:57:38.319Z,21.70
2023-01-17T01:00:24.945Z,24.20
2023-01-17T01:03:10.435Z,23.20
2023-01-17T01:05:56.654Z,24.40
2023-01-17T01:08:43.860Z,25.50
2023-01-17T01:11:33.347Z,24.50
2023-01-17T01:14:18.855Z,22.40
2023-01-17T01:17:04.602Z,22.10
2023-01-17T01:19:50.130Z,20.00
2023-01-17T01:22:35.818Z,20.40
2023-01-17T01:25:21.413Z,24.70
2023-01-17T01:28:07.203Z,18.30
2023-01-17T01:30:53.100Z,18.80
2023-01-17T01:33:20.042Z,20.20
2023-01-17T01:35:54.812Z,19.00
2023-01-17T01:38:23.259Z,19.70
2023-01-17T01:40:54.181Z,20.00
2023-01-17T01:43:39.159Z,19.80
2023-01-17T01:46:06.016Z,18.10
2023-01-17T01:48:36.548Z,19.80
2023-01-17T01:51:05.361Z,20.70
2023-01-17T01:53:33.381Z,19.80
2023-01-17T01:56:00.224Z,19.70
2023-01-17T01:58:28.027Z,20.40
2023-01-17T02:00:55.010Z,18.60
2023-01-17T02:03:25.806Z,21.50
2023-01-17T02:05:52.757Z,21.30
2023-01-17T02:08:20.611Z,21.50
2023-01-17T02:10:47.725Z,18.80
2023-01-17T02:13:16.065Z,21.40
2023-01-17T02:15:54.421Z,22.90
2023-01-17T02:18:34.443Z,18.60
2023-01-17T02:21:07.486Z,19.90
2023-01-17T02:23:52.933Z,18.60
2023-01-17T02:26:52.791Z,19.70
2023-01-17T02:29:38.563Z,23.70
2023-01-17T02:32:11.976Z,20.80
2023-01-17T02:34:41.698Z,21.70
2023-01-17T02:37:21.847Z,21.70
2023-01-17T02:39:58.927Z,21.10
2023-01-17T02:42:30.237Z,22.70
2023-01-17T02:44:57.068Z,23.00
2023-01-17T02:47:24.941Z,25.50
2023-01-17T02:49:53.459Z,23.30
2023-01-17T02:52:50.172Z,22.90
2023-01-17T02:55:23.212Z,20.40
2023-01-17T02:58:13.253Z,22.80
2023-01-17T03:00:45.007Z,20.90
2023-01-17T03:03:11.859Z,20.70
2023-01-17T03:05:48.629Z,20.50
2023-01-17T03:08:15.600Z,20.80
2023-01-17T03:10:42.595Z,24.20
2023-01-17T03:13:10.263Z,24.40
2023-01-17T03:29:39.998Z,19.50
2023-01-17T03:32:06.528Z,23.20
2023-01-17T03:34:33.196Z,24.30
2023-01-17T03:36:59.513Z,22.40
2023-01-17T03:39:26.211Z,18.50
2023-01-17T03:41:52.669Z,20.70
2023-01-17T03:44:19.263Z,22.50
2023-01-17T03:46:46.283Z,24.00
2023-01-17T03:49:13.362Z,23.10
2023-01-17T03:51:39.844Z,20.80
2023-01-17T03:54:06.486Z,19.10
2023-01-17T03:56:34.944Z,19.60
2023-01-17T03:59:01.490Z,23.00
2023-01-17T04:01:28.112Z,19.00
2023-01-17T04:03:56.791Z,21.40
2023-01-17T04:06:23.242Z,19.00
2023-01-17T04:08:50.501Z,20.10
2023-01-17T04:11:16.876Z,21.80
2023-01-17T04:13:43.740Z,21.70
2023-01-17T04:16:13.092Z,19.60
2023-01-17T04:18:39.404Z,23.60
2023-01-17T04:21:07.212Z,21.70
2023-01-17T04:23:34.209Z,18.50
2023-01-17T04:26:00.765Z,21.30
2023-01-17T04:28:27.279Z,18.70
2023-01-17T04:30:57.534Z,20.00
2023-01-17T04:33:26.439Z,21.60
2023-01-17T04:35:54.091Z,20.70
2023-01-17T04:38:23.205Z,20.20
2023-01-17T04:40:50.269Z,26.80
2023-01-17T04:43:17.048Z,23.20
2023-01-17T04:45:46.074Z,21.90
2023-01-17T04:48:12.835Z,19.40
2023-01-17T04:50:39.453Z,20.20
2023-01-17T04:53:05.857Z,21.40
2023-01-17T04:55:32.493Z,21.80
2023-01-17T04:57:58.836Z,20.60
2023-01-17T05:00:25.137Z,20.40
2023-01-17T05:02:51.648Z,21.10
2023-01-17T05:05:18.829Z,22.00
2023-01-17T05:07:52.869Z,18.70
2023-01-17T05:10:19.169Z,20.60
2023-01-17T05:12:53.447Z,19.60
2023-01-17T05:15:19.815Z,18.10
2023-01-17T05:17:46.154Z,19.60
2023-01-17T05:20:12.615Z,20.00
2023-01-17T05:22:39.168Z,19.80
2023-01-17T05:25:06.269Z,17.20
2023-01-17T05:27:32.826Z,16.70
2023-01-17T05:29:59.053Z,19.20
2023-01-17T05:32:25.453Z,18.10
2023-01-17T05:34:52.324Z,16.00
2023-01-17T05:37:18.997Z,16.40
2023-01-17T05:39:45.485Z,17.40
2023-01-17T05:42:13.998Z,15.80
2023-01-17T05:44:40.493Z,16.10
2023-01-17T05:47:07.536Z,16.10
2023-01-17T05:49:34.281Z,13.30
2023-01-17T05:52:01.581Z,16.70
2023-01-17T05:54:28.110Z,14.50
2023-01-17T05:56:54.455Z,15.40
2023-01-17T05:59:32.394Z,14.30
2023-01-17T06:08:18.736Z,13.00
2023-01-17T06:10:47.113Z,15.20
2023-01-17T06:13:15.500Z,16.00
2023-01-17T06:15:42.871Z,14.50
2023-01-17T06:18:11.485Z,15.40
2023-01-17T06:20:38.714Z,14.00
2023-01-17T06:23:07.699Z,15.70
2023-01-17T06:25:45.515Z,16.70
2023-01-17T06:28:13.797Z,15.00
2023-01-17T06:30:41.011Z,14.80
2023-01-17T06:33:08.352Z,17.40
2023-01-17T06:35:35.510Z,15.80
2023-01-17T06:38:02.477Z,15.10
2023-01-17T06:40:29.704Z,18.00
2023-01-17T10:48:22.416Z,26.40
2023-01-17T10:51:00.346Z,25.50
2023-01-17T10:53:46.408Z,27.10
2023-01-17T10:56:14.029Z,25.90
2023-01-17T10:58:41.188Z,27.10
2023-01-17T11:01:19.768Z,25.40
2023-01-17T11:03:50.772Z,28.20
2023-01-17T11:06:17.732Z,24.60
2023-01-17T15:21:30.564Z,31.90
2023-01-17T15:24:03.977Z,31.40
2023-01-17T15:26:34.745Z,28.70
2023-01-17T15:29:06.666Z,29.10
2023-01-17T15:31:39.999Z,28.10
2023-01-17T15:34:32.264Z,29.90
2023-01-17T15:37:01.752Z,27.20
2023-01-17T15:39:31.075Z,26.80
2023-01-17T15:41:59.840Z,28.90
2023-01-17T15:44:47.507Z,28.70
2023-01-17T15:47:32.860Z,28.80
2023-01-17T15:50:00.504Z,27.50
2023-01-17T15:52:27.903Z,28.90
2023-01-17T15:55:10.949Z,26.40
2023-01-17T15:57:38.308Z,30.20
2023-01-17T16:00:19.208Z,25.30
2023-01-17T16:02:46.987Z,26.30
2023-01-17T16:05:23.463Z,25.50
2023-01-17T16:07:50.447Z,27.40
2023-01-17T16:10:21.564Z,29.30
2023-01-17T16:12:49.864Z,28.00
2023-01-17T16:15:18.387Z,25.10
2023-01-17T16:17:48.196Z,28.20
2023-01-17T16:20:35.158Z,29.00
2023-01-17T16:23:02.768Z,28.20
2023-01-17T16:25:32.940Z,27.80
2023-01-17T16:27:59.986Z,26.50
2023-01-17T16:30:27.473Z,31.70
2023-01-17T16:32:56.713Z,30.10
2023-01-17T16:35:25.481Z,27.90
2023-01-17T16:38:03.048Z,27.30
2023-01-17T16:40:31.962Z,27.90
2023-01-17T16:42:59.343Z,27.90
2023-01-17T16:45:26.359Z,25.10
2023-01-17T16:47:54.139Z,27.60
2023-01-17T16:50:22.938Z,27.00
2023-01-17T16:52:51.220Z,26.10
2023-01-17T16:55:18.510Z,27.00
2023-01-17T16:57:45.815Z,27.80
2023-01-17T17:00:13.116Z,28.60
2023-01-17T17:02:40.976Z,28.00
2023-01-17T17:05:08.738Z,26.90
2023-01-17T17:07:37.533Z,28.80
2023-01-17T17:10:05.547Z,28.10
2023-01-17T17:12:32.468Z,28.20
2023-01-17T17:14:59.358Z,30.70
2023-01-17T17:17:27.235Z,25.80
2023-01-17T17:19:54.141Z,29.40
2023-01-17T17:22:21.020Z,27.90
2023-01-17T17:24:47.955Z,29.10
2023-01-17T17:27:15.015Z,27.90
2023-01-17T17:29:42.023Z,30.40
2023-01-17T17:32:11.759Z,29.40
2023-01-17T17:34:38.809Z,25.20
2023-01-17T17:37:05.723Z,26.90
2023-01-17T17:39:32.959Z,27.70
2023-01-17T17:41:59.922Z,26.90
2023-01-17T17:44:27.541Z,29.50
2023-01-17T17:46:54.452Z,27.50
2023-01-17T17:49:22.756Z,25.70
2023-01-17T17:51:50.347Z,25.40
2023-01-17T17:54:17.451Z,27.70
2023-01-17T17:56:47.510Z,29.60
2023-01-17T17:59:18.304Z,27.20
2023-01-17T18:01:46.138Z,27.00
2023-01-17T18:04:13.125Z,28.70
2023-01-17T18:06:40.827Z,27.50
2023-01-17T18:09:09.072Z,29.00
2023-01-17T18:11:37.458Z,27.10
2023-01-17T18:14:04.907Z,32.20
2023-01-17T18:16:36.242Z,26.80
2023-01-17T18:19:03.637Z,26.40
2023-01-17T18:21:37.288Z,30.80
2023-01-17T18:24:12.526Z,31.20
2023-01-17T18:26:43.844Z,25.80
2023-01-17T18:29:14.736Z,25.00
2023-01-17T18:31:42.778Z,26.10
2023-01-17T18:34:14.607Z,30.10
2023-01-17T18:36:42.183Z,27.90
2023-01-17T18:39:20.560Z,24.40
2023-01-17T18:41:47.928Z,28.00
2023-01-17T18:44:14.808Z,28.30
2023-01-17T18:46:42.231Z,29.10
2023-01-17T18:49:12.791Z,27.20
2023-01-17T18:51:39.718Z,27.60
2023-01-17T18:54:08.918Z,26.50
2023-01-17T18:56:35.905Z,27.50
2023-01-17T18:59:03.266Z,27.90
2023-01-17T19:01:33.610Z,25.70
2023-01-17T19:04:02.559Z,21.10
2023-01-17T19:06:31.824Z,28.10
2023-01-17T19:08:58.966Z,26.50
2023-01-17T19:11:26.155Z,26.00
2023-01-17T19:13:53.491Z,25.70
2023-01-17T19:16:24.571Z,28.30
2023-01-17T19:18:52.289Z,27.80
2023-01-17T19:21:20.936Z,27.30
2023-01-17T19:23:47.957Z,25.70
2023-01-17T19:26:17.191Z,28.00
2023-01-17T19:28:45.521Z,23.50
2023-01-17T19:31:21.040Z,27.10
2023-01-17T19:33:53.598Z,25.60
2023-01-17T19:36:23.563Z,26.00
2023-01-17T19:39:03.385Z,27.70
2023-01-17T19:41:32.237Z,27.50
2023-01-17T19:44:04.611Z,26.50
2023-01-17T19:46:32.614Z,27.00
2023-01-17T19:48:59.889Z,26.80
2023-01-17T19:51:27.939Z,27.80
2023-01-17T19:53:55.306Z,26.90
2023-01-17T19:56:25.668Z,26.30
2023-01-17T19:58:52.889Z,25.90
2023-01-17T20:01:25.312Z,30.00
2023-01-17T20:03:52.975Z,25.80
2023-01-17T20:06:21.763Z,29.60
2023-01-17T20:08:48.847Z,25.60
2023-01-17T20:11:20.670Z,28.50
2023-01-17T20:13:48.643Z,29.10
2023-01-17T20:16:16.230Z,26.40
2023-01-17T20:18:43.389Z,25.80
2023-01-17T20:21:20.829Z,27.70
2023-01-17T20:23:48.054Z,25.90
2023-01-17T20:26:20.528Z,27.10
2023-01-17T20:28:48.455Z,29.90
2023-01-17T20:31:18.123Z,26.10
2023-01-17T20:33:47.074Z,27.40
2023-01-17T20:36:15.421Z,29.10
2023-01-17T20:38:46.259Z,28.60
2023-01-17T20:41:19.983Z,27.90
2023-01-17T20:43:48.641Z,27.90
2023-01-17T20:46:17.690Z,25.40
2023-01-17T20:48:49.070Z,24.80
2023-01-17T20:51:16.617Z,25.80
2023-01-17T20:53:44.275Z,26.10
2023-01-17T20:56:14.773Z,28.20
2023-01-17T20:58:42.107Z,28.70
2023-01-17T21:01:10.144Z,28.30
2023-01-17T21:03:37.696Z,28.90
2023-01-17T21:06:06.624Z,28.10
2023-01-17T21:08:35.573Z,27.90
2023-01-17T21:11:02.611Z,29.20
2023-01-17T21:13:29.644Z,28.50
2023-01-17T21:15:56.811Z,27.80
2023-01-17T21:18:24.720Z,27.80
2023-01-17T21:20:51.838Z,27.20
2023-01-17T21:23:19.065Z,26.00
2023-01-17T21:25:58.996Z,27.80
2023-01-17T21:28:27.887Z,22.90
2023-01-17T21:30:55.370Z,28.30
2023-01-17T21:33:23.232Z,23.60
2023-01-17T21:35:50.343Z,27.10
2023-01-17T21:38:18.287Z,26.30
2023-01-17T21:40:45.524Z,24.50
2023-01-17T21:43:12.559Z,27.50
2023-01-17T21:45:40.618Z,26.10
2023-01-17T21:48:12.360Z,23.90
2023-01-17T21:50:39.579Z,26.00
2023-01-17T21:53:07.161Z,27.90
2023-01-17T21:55:53.253Z,26.00
2023-01-17T21:58:39.026Z,25.90
2023-01-17T22:01:15.803Z,27.70
2023-01-17T22:03:43.909Z,25.80
2023-01-17T22:06:11.011Z,28.60
2023-01-17T22:08:38.444Z,25.90
2023-01-17T22:11:11.048Z,27.20
2023-01-17T22:13:38.657Z,25.30
2023-01-17T22:16:07.262Z,27.30
2023-01-17T22:18:37.186Z,27.70
2023-01-17T22:21:19.630Z,24.80
2023-01-17T22:23:48.893Z,25.40
2023-01-17T22:26:16.087Z,25.40
2023-01-17T22:28:43.310Z,27.10
2023-01-17T22:31:12.195Z,28.20
2023-01-17T22:33:41.325Z,27.10
2023-01-17T22:36:09.179Z,29.60
2023-01-17T22:38:36.423Z,31.40
2023-01-17T22:41:10.044Z,27.20
2023-01-17T22:43:38.988Z,28.00
2023-01-17T22:46:07.903Z,30.10
2023-01-17T22:48:35.920Z,29.10
2023-01-17T22:51:03.487Z,26.70
2023-01-17T22:53:31.605Z,27.90
2023-01-17T22:56:04.303Z,30.60
2023-01-17T22:58:33.828Z,24.80
2023-01-17T23:01:17.813Z,25.10
2023-01-17T23:03:45.612Z,26.80
2023-01-17T23:06:21.535Z,31.30
2023-01-17T23:08:50.773Z,27.30
2023-01-17T23:11:42.599Z,27.80
2023-01-17T23:14:12.979Z,29.60
2023-01-17T23:17:00.306Z,27.20
2023-01-17T23:19:29.191Z,26.10
2023-01-17T23:22:18.259Z,28.90
2023-01-17T23:24:57.916Z,25.30
2023-01-17T23:27:44.379Z,25.80
2023-01-17T23:30:13.748Z,30.40
2023-01-17T23:32:44.527Z,28.20
2023-01-17T23:35:11.910Z,27.90
2023-01-17T23:37:57.495Z,25.50
2023-01-17T23:40:24.423Z,24.40
2023-01-17T23:43:09.949Z,24.70
2023-01-17T23:45:37.685Z,23.30
2023-01-17T23:48:05.675Z,24.90
2023-01-17T23:50:33.277Z,25.10
2023-01-17T23:53:00.555Z,26.00
2023-01-17T23:55:27.445Z,25.30
2023-01-17T23:57:55.082Z,26.30
